z.NO-49128F / CS-DTO 7700 Squawk Report (10th of January, 2018)

Time Lat Lon Altitude Heading Speed Vertical Rate
2018-01-10 17:52:04 GMT 46.81340 -1.46262 8,850 169 192 -896
2018-01-10 17:51:55 GMT 46.81921 -1.46400 8,950 168 197 -1024
2018-01-10 17:51:46 GMT 46.82638 -1.46558 9,025 168 199 -1280
2018-01-10 17:51:32 GMT 46.84021 -1.46942 9,350 167 195 -1280
2018-01-10 17:51:20 GMT 46.85259 -1.47409 9,400 168 191 -1344
2018-01-10 17:51:10 GMT 46.86209 -1.47608 9,500 167 183 -1344
2018-01-10 17:50:54 GMT 46.87461 -1.47999 10,225 167 181 -1088
2018-01-10 17:50:39 GMT 46.88648 -1.48372 10,300 168 174 -832
2018-01-10 17:50:30 GMT 46.89370 -1.48569 10,725 167 173 -640
2018-01-10 17:50:22 GMT 46.89970 -1.48717 10,825 167 161 -448
2018-01-10 17:50:12 GMT 46.91009 -1.49041 10,700 167 161 832
2018-01-10 17:50:02 GMT 46.91460 -1.49132 11,075 166 160 1152
2018-01-10 17:49:47 GMT 46.92610 -1.49499 11,000 165 162 1600
2018-01-10 17:49:38 GMT 46.93201 -1.49682 10,900 165 164 1664
2018-01-10 17:49:29 GMT 46.94072 -1.50069 10,350 166 163 1664
2018-01-10 17:49:21 GMT 46.94570 -1.50252 10,500 166 164 1472
2018-01-10 17:49:09 GMT 46.95529 -1.50590 10,200 166 164 1408
2018-01-10 17:48:55 GMT 46.96450 -1.50879 9,900 165 160 1408
2018-01-10 17:48:48 GMT 46.97312 -1.51189 9,500 165 160 1600
2018-01-10 17:48:34 GMT 46.98029 -1.51527 9,300 167 160 1664
2018-01-10 17:48:28 GMT 46.98531 -1.51759 8,825 167 159 1600
2018-01-10 17:48:19 GMT 46.99188 -1.52083 8,550 169 157 1472
2018-01-10 17:48:01 GMT 47.00659 -1.52562 8,600 171 158 1472
2018-01-10 17:47:52 GMT 47.00938 -1.52647 8,300 172 159 1600
2018-01-10 17:47:45 GMT 47.01660 -1.52851 8,100 173 160 1728

Making use of Plane Finder data

You are free to use the raw flight data, aircraft information and images provided in this report for your own purposes provided the data is correctly attributed to Plane Finder. We ask that you please credit Plane Finder and link to planefinder.net in close proximity to the content.

Optionally one of the following logos (no smaller then 150x24px) can be used and must link to planefinder.net

Embedding the Plane Finder map

You are welcome to embed the Plane Finder playback map on your website to offer visitors a more interactive experience. We suggest using the following HTML code:

<iframe src="//planefinder.net/data/report/z.NO-49128F-CS-DTO-7700-squawk-2018-01-10/map" width="800" height="600" seamless="seamless"></iframe>

Where our data comes from

Plane Finder has a global network of data feeds and antenna radars that receive data broadcast directly from aircraft. The primary technologies used are ADS-B and MLAT. We also show feeds from the FAA and a FLARM glider feed.

Click here to find out more about the Plane Finder network.

How we collect our data